Time;durP1;ratioP1;P1;durP2;ratioP2;P2;SDS_P1;SDS_P2;PMS_P1;PMS_P2;Temp;Humidity;BMP_temperature;BMP_pressure;BME280_temperature;BME280_humidity;BME280_pressure;Samples;Min_cycle;Max_cycle;Signal;HPM_P1;HPM_P2
2021/01/19 00:01:29;;;;;;;35.35;32.33;;;;;;;;;;5033318;28;20214;-80
2021/01/19 00:03:56;;;;;;;36.03;32.25;;;;;;;;;;5033315;28;20223;-80
2021/01/19 00:06:23;;;;;;;36.72;33.42;;;;;;;;;;5033168;28;20187;-80
2021/01/19 00:08:50;;;;;;;37.33;33.53;;;;;;;;;;5034199;28;20190;-80
2021/01/19 00:11:17;;;;;;;35.08;32.03;;;;;;;;;;5033250;28;20535;-79
2021/01/19 00:13:44;;;;;;;29.23;27.02;;;;;;;;;;5033200;28;20190;-79
2021/01/19 00:16:11;;;;;;;34.53;31.20;;;;;;;;;;5032901;28;20260;-79
2021/01/19 00:18:37;;;;;;;36.38;33.08;;;;;;;;;;5033079;28;20631;-79
2021/01/19 00:21:05;;;;;;;36.88;33.65;;;;;;;;;;5036792;28;20194;-79
2021/01/19 00:23:33;;;;;;;35.15;32.15;;;;;;;;;;5036610;28;20222;-79
2021/01/19 00:26:00;;;;;;;34.72;31.75;;;;;;;;;;5036560;28;20197;-80
2021/01/19 00:28:26;;;;;;;36.72;33.50;;;;;;;;;;5036910;28;20197;-80
2021/01/19 00:30:53;;;;;;;37.05;33.65;;;;;;;;;;5036653;28;20200;-80
2021/01/19 00:33:20;;;;;;;33.55;30.60;;;;;;;;;;5019120;28;20207;-79
2021/01/19 00:35:47;;;;;;;35.72;32.47;;;;;;;;;;5036735;28;20187;-80
2021/01/19 00:38:14;;;;;;;33.33;30.42;;;;;;;;;;5036597;28;20210;-80
2021/01/19 00:40:42;;;;;;;33.03;30.13;;;;;;;;;;5036680;28;20189;-80
2021/01/19 00:43:09;;;;;;;34.70;31.70;;;;;;;;;;5036120;28;20194;-80
2021/01/19 00:45:36;;;;;;;33.15;30.33;;;;;;;;;;5036563;28;20198;-80
2021/01/19 00:48:03;;;;;;;25.33;23.58;;;;;;;;;;5036309;28;20188;-80
2021/01/19 00:50:30;;;;;;;30.92;28.23;;;;;;;;;;5036153;28;20648;-80
2021/01/19 00:52:56;;;;;;;25.30;23.45;;;;;;;;;;5036328;28;20223;-80
2021/01/19 00:55:23;;;;;;;31.90;29.30;;;;;;;;;;5036082;28;20190;-80
2021/01/19 00:57:51;;;;;;;29.98;27.67;;;;;;;;;;5036356;28;20280;-79
2021/01/19 01:00:18;;;;;;;29.10;26.75;;;;;;;;;;5036352;28;20186;-80
2021/01/19 01:02:45;;;;;;;30.88;28.20;;;;;;;;;;5036033;28;20190;-80
2021/01/19 01:05:13;;;;;;;29.73;27.35;;;;;;;;;;5035909;28;20221;-80
2021/01/19 01:07:40;;;;;;;30.20;27.40;;;;;;;;;;5036200;28;20193;-80
2021/01/19 01:10:08;;;;;;;30.67;28.02;;;;;;;;;;5035888;28;20228;-80
2021/01/19 01:12:35;;;;;;;30.63;28.33;;;;;;;;;;5035866;28;20532;-79
2021/01/19 01:15:05;;;;;;;29.10;26.60;;;;;;;;;;5035531;28;20294;-80
2021/01/19 01:17:35;;;;;;;29.95;27.63;;;;;;;;;;5035716;28;20686;-79
2021/01/19 01:20:02;;;;;;;28.65;26.30;;;;;;;;;;5035944;28;20488;-80
2021/01/19 01:22:29;;;;;;;28.85;26.48;;;;;;;;;;5036458;28;20288;-79
2021/01/19 01:24:55;;;;;;;29.30;26.80;;;;;;;;;;5035486;28;20718;-80
2021/01/19 01:27:22;;;;;;;26.75;24.85;;;;;;;;;;5035499;28;20201;-80
2021/01/19 01:29:49;;;;;;;28.30;26.10;;;;;;;;;;5035295;28;20296;-80
2021/01/19 01:32:17;;;;;;;30.00;27.80;;;;;;;;;;5035698;28;20583;-80
2021/01/19 01:34:44;;;;;;;28.85;26.65;;;;;;;;;;5035443;28;20191;-80
2021/01/19 01:37:11;;;;;;;31.58;29.05;;;;;;;;;;5035281;28;20189;-80
2021/01/19 01:39:38;;;;;;;28.75;26.42;;;;;;;;;;5035696;28;20193;-80
2021/01/19 01:42:05;;;;;;;29.95;27.75;;;;;;;;;;5035593;28;20209;-79
2021/01/19 01:44:32;;;;;;;28.95;26.45;;;;;;;;;;5035298;28;20234;-80
2021/01/19 01:46:58;;;;;;;29.80;27.60;;;;;;;;;;5035175;28;20632;-80
2021/01/19 01:49:26;;;;;;;30.50;27.83;;;;;;;;;;5035155;28;20253;-80
2021/01/19 01:51:53;;;;;;;29.85;27.50;;;;;;;;;;5034854;28;20220;-81
2021/01/19 01:54:20;;;;;;;28.73;26.58;;;;;;;;;;5034939;28;20293;-79
2021/01/19 01:56:48;;;;;;;28.30;25.80;;;;;;;;;;5035278;28;20558;-79
2021/01/19 01:59:14;;;;;;;29.70;27.02;;;;;;;;;;5034992;28;20202;-79
2021/01/19 02:01:41;;;;;;;29.65;27.27;;;;;;;;;;5035205;28;20195;-79
2021/01/19 02:04:08;;;;;;;29.00;26.63;;;;;;;;;;5034921;28;20214;-79
2021/01/19 02:06:36;;;;;;;29.65;27.52;;;;;;;;;;5034731;28;20198;-79
2021/01/19 02:09:06;;;;;;;29.30;26.95;;;;;;;;;;5034795;28;20194;-79
2021/01/19 02:11:36;;;;;;;27.60;25.35;;;;;;;;;;5034731;28;20635;-78
2021/01/19 02:14:09;;;;;;;27.85;25.80;;;;;;;;;;5017111;28;20683;-79
2021/01/19 02:16:41;;;;;;;29.00;26.83;;;;;;;;;;5034415;28;20284;-78
2021/01/19 02:19:18;;;;;;;24.75;23.08;;;;;;;;;;5034576;28;20209;-79
2021/01/19 02:21:55;;;;;;;29.20;26.77;;;;;;;;;;5034478;28;20192;-79
2021/01/19 02:24:31;;;;;;;28.80;26.63;;;;;;;;;;5030486;28;20718;-79
2021/01/19 02:27:16;;;;;;;28.80;26.45;;;;;;;;;;5016743;28;20656;-79
2021/01/19 02:29:59;;;;;;;26.83;24.92;;;;;;;;;;5033796;28;20206;-79
2021/01/19 02:32:31;;;;;;;27.77;25.48;;;;;;;;;;5022171;28;20215;-79
2021/01/19 02:35:00;;;;;;;28.02;25.92;;;;;;;;;;5034484;28;20216;-78
2021/01/19 02:37:30;;;;;;;26.58;24.17;;;;;;;;;;5016506;28;20606;-79
2021/01/19 02:40:02;;;;;;;25.85;23.77;;;;;;;;;;5016736;28;20205;-79
2021/01/19 02:42:31;;;;;;;28.30;26.25;;;;;;;;;;5033749;28;20197;-78
2021/01/19 02:44:59;;;;;;;27.52;25.55;;;;;;;;;;5034215;28;20221;-79
2021/01/19 02:47:26;;;;;;;29.25;27.25;;;;;;;;;;5034038;28;20272;-78
2021/01/19 02:49:54;;;;;;;30.25;27.85;;;;;;;;;;5034001;28;20644;-78
2021/01/19 02:52:22;;;;;;;30.05;27.70;;;;;;;;;;5034637;28;20232;-79
2021/01/19 02:54:49;;;;;;;31.52;29.00;;;;;;;;;;5034187;28;20190;-79
2021/01/19 02:57:26;;;;;;;31.60;29.25;;;;;;;;;;5034137;28;20624;-79
2021/01/19 03:00:01;;;;;;;31.60;29.20;;;;;;;;;;5034148;28;20198;-79
2021/01/19 03:02:30;;;;;;;31.88;29.27;;;;;;;;;;5033804;28;20197;-79
2021/01/19 03:04:59;;;;;;;30.85;28.20;;;;;;;;;;5033721;28;20213;-79
2021/01/19 03:07:27;;;;;;;31.55;28.63;;;;;;;;;;5034011;28;20191;-79
2021/01/19 03:09:54;;;;;;;32.15;29.38;;;;;;;;;;5033992;28;20196;-79
2021/01/19 03:12:21;;;;;;;28.55;26.05;;;;;;;;;;5033818;28;20201;-79
2021/01/19 03:14:48;;;;;;;29.73;27.60;;;;;;;;;;5033542;28;20244;-79
2021/01/19 03:17:15;;;;;;;26.52;24.75;;;;;;;;;;5033823;28;20234;-79
2021/01/19 03:19:43;;;;;;;32.30;29.65;;;;;;;;;;5033550;28;20571;-79
2021/01/19 03:22:11;;;;;;;26.50;24.42;;;;;;;;;;5033526;28;20190;-79
2021/01/19 03:24:38;;;;;;;32.25;29.48;;;;;;;;;;5033395;28;20683;-79
2021/01/19 03:27:05;;;;;;;26.98;25.13;;;;;;;;;;5033698;28;20213;-79
2021/01/19 03:29:32;;;;;;;29.00;26.88;;;;;;;;;;5033712;28;20189;-79
2021/01/19 03:31:59;;;;;;;29.70;27.50;;;;;;;;;;5033362;28;20249;-80
2021/01/19 03:34:26;;;;;;;27.35;24.83;;;;;;;;;;5034323;28;20229;-79
2021/01/19 03:36:56;;;;;;;25.15;23.45;;;;;;;;;;5033690;28;20222;-79
2021/01/19 03:39:24;;;;;;;29.05;26.60;;;;;;;;;;5033645;28;20187;-79
2021/01/19 03:41:51;;;;;;;26.48;24.55;;;;;;;;;;5033763;28;20193;-79
2021/01/19 03:44:18;;;;;;;23.85;22.27;;;;;;;;;;5033221;28;20292;-79
2021/01/19 03:46:45;;;;;;;25.02;23.08;;;;;;;;;;5033571;28;20291;-79
2021/01/19 03:49:12;;;;;;;26.85;25.05;;;;;;;;;;5033270;28;20194;-79
2021/01/19 03:51:39;;;;;;;25.88;24.00;;;;;;;;;;5033154;28;20221;-78
2021/01/19 03:54:06;;;;;;;26.67;24.60;;;;;;;;;;5035653;28;20198;-79
2021/01/19 03:56:33;;;;;;;25.33;23.63;;;;;;;;;;5037192;28;20534;-79
2021/01/19 03:59:00;;;;;;;25.40;23.70;;;;;;;;;;5037240;28;20661;-79
2021/01/19 04:01:27;;;;;;;24.77;23.17;;;;;;;;;;5037448;28;20542;-79
2021/01/19 04:03:54;;;;;;;27.08;25.17;;;;;;;;;;5037326;28;20254;-79
2021/01/19 04:06:21;;;;;;;24.42;22.85;;;;;;;;;;5019595;28;20219;-79
2021/01/19 04:08:48;;;;;;;24.15;22.33;;;;;;;;;;5019374;28;20201;-79
2021/01/19 04:11:15;;;;;;;23.48;21.73;;;;;;;;;;5037298;28;20197;-79
2021/01/19 04:13:43;;;;;;;25.50;23.45;;;;;;;;;;5037163;28;20199;-79
2021/01/19 04:16:10;;;;;;;23.58;22.02;;;;;;;;;;5036714;28;20240;-79
2021/01/19 04:18:37;;;;;;;23.52;22.02;;;;;;;;;;5037166;28;20560;-79
2021/01/19 04:21:04;;;;;;;21.95;20.58;;;;;;;;;;5037166;28;20189;-79
2021/01/19 04:23:31;;;;;;;23.10;21.55;;;;;;;;;;5036910;28;20558;-79
2021/01/19 04:25:58;;;;;;;21.65;20.35;;;;;;;;;;5036922;28;20193;-79
2021/01/19 04:28:24;;;;;;;21.50;20.00;;;;;;;;;;5036971;28;20189;-79
2021/01/19 04:30:52;;;;;;;23.88;22.15;;;;;;;;;;5036978;28;20194;-79
2021/01/19 04:33:19;;;;;;;23.15;21.65;;;;;;;;;;5036927;28;20190;-79
2021/01/19 04:35:46;;;;;;;23.23;21.63;;;;;;;;;;5036509;28;20663;-79
2021/01/19 04:38:13;;;;;;;20.98;19.88;;;;;;;;;;5036458;28;20706;-79
2021/01/19 04:40:40;;;;;;;22.30;20.70;;;;;;;;;;5037277;28;20202;-79
2021/01/19 04:43:07;;;;;;;22.70;21.20;;;;;;;;;;5036596;28;20673;-79
2021/01/19 04:45:34;;;;;;;22.42;20.73;;;;;;;;;;5036177;28;20217;-79
2021/01/19 04:48:02;;;;;;;22.55;20.95;;;;;;;;;;5036584;28;20187;-78
2021/01/19 04:50:30;;;;;;;21.80;20.40;;;;;;;;;;5018654;28;20568;-79
2021/01/19 04:52:59;;;;;;;22.38;20.83;;;;;;;;;;5036179;28;20214;-79
2021/01/19 04:55:26;;;;;;;20.50;19.35;;;;;;;;;;5019005;28;20256;-78
2021/01/19 04:57:55;;;;;;;21.90;20.38;;;;;;;;;;5036126;28;20586;-79
2021/01/19 05:00:28;;;;;;;22.40;20.50;;;;;;;;;;5036130;28;20703;-78
2021/01/19 05:03:13;;;;;;;20.10;18.95;;;;;;;;;;5036258;28;20193;-79
2021/01/19 05:06:01;;;;;;;21.83;20.38;;;;;;;;;;5035410;28;20213;-79
2021/01/19 05:08:42;;;;;;;21.67;20.13;;;;;;;;;;5035982;28;20190;-79
2021/01/19 05:11:13;;;;;;;21.60;20.30;;;;;;;;;;5036179;28;20530;-79
2021/01/19 05:13:58;;;;;;;22.67;20.45;;;;;;;;;;5035764;28;20186;-79
2021/01/19 05:16:26;;;;;;;22.20;20.60;;;;;;;;;;5035345;28;20265;-79
2021/01/19 05:18:53;;;;;;;21.63;20.13;;;;;;;;;;5035731;28;20653;-80
2021/01/19 05:21:21;;;;;;;22.05;20.55;;;;;;;;;;5035636;28;20288;-80
2021/01/19 05:23:49;;;;;;;21.77;20.23;;;;;;;;;;5035814;28;20576;-79
2021/01/19 05:26:17;;;;;;;21.30;20.10;;;;;;;;;;5035567;28;20190;-79
2021/01/19 05:28:44;;;;;;;22.60;21.00;;;;;;;;;;5035875;28;20244;-80
2021/01/19 05:31:22;;;;;;;22.00;20.50;;;;;;;;;;5035555;28;20200;-80
2021/01/19 05:34:12;;;;;;;20.92;19.60;;;;;;;;;;5035451;28;20204;-80
2021/01/19 05:36:43;;;;;;;22.08;20.60;;;;;;;;;;5020665;28;20215;-79
2021/01/19 05:39:12;;;;;;;22.42;20.65;;;;;;;;;;5035340;28;20640;-79
2021/01/19 05:41:41;;;;;;;21.85;20.35;;;;;;;;;;5035638;28;20195;-79
2021/01/19 05:44:29;;;;;;;22.38;20.73;;;;;;;;;;5035334;28;20221;-80
2021/01/19 05:47:02;;;;;;;21.98;20.40;;;;;;;;;;5035235;28;20635;-79
2021/01/19 05:49:29;;;;;;;23.00;21.40;;;;;;;;;;5035178;28;20198;-79
2021/01/19 05:51:59;;;;;;;22.67;20.77;;;;;;;;;;5035185;28;20233;-79
2021/01/19 05:54:28;;;;;;;23.67;22.08;;;;;;;;;;5035339;28;20265;-80
2021/01/19 05:57:02;;;;;;;22.30;20.38;;;;;;;;;;5035062;28;20206;-79
2021/01/19 05:59:30;;;;;;;21.98;20.48;;;;;;;;;;5035278;28;20191;-79
2021/01/19 06:01:57;;;;;;;22.95;21.30;;;;;;;;;;5035159;28;20205;-80
2021/01/19 06:04:30;;;;;;;22.30;20.67;;;;;;;;;;5035015;28;20218;-80
2021/01/19 06:06:57;;;;;;;21.90;20.05;;;;;;;;;;5034732;28;20198;-80
2021/01/19 06:09:24;;;;;;;22.30;20.50;;;;;;;;;;5035165;28;20632;-79
2021/01/19 06:11:53;;;;;;;21.70;20.23;;;;;;;;;;5034715;28;20190;-80
2021/01/19 06:14:24;;;;;;;21.65;20.15;;;;;;;;;;5034647;28;20194;-79
2021/01/19 06:16:50;;;;;;;22.42;20.83;;;;;;;;;;5033687;28;20211;-80
2021/01/19 06:19:27;;;;;;;21.55;19.88;;;;;;;;;;5034595;28;20194;-78
2021/01/19 06:21:54;;;;;;;19.92;18.73;;;;;;;;;;5034855;28;20187;-79
2021/01/19 06:24:31;;;;;;;22.65;20.55;;;;;;;;;;5034685;28;20284;-79
2021/01/19 06:26:59;;;;;;;22.48;20.77;;;;;;;;;;5016722;28;20206;-80
2021/01/19 06:29:28;;;;;;;22.02;20.52;;;;;;;;;;5034650;28;20189;-79
2021/01/19 06:31:57;;;;;;;23.08;21.17;;;;;;;;;;5034592;28;20194;-80
2021/01/19 06:34:28;;;;;;;22.13;20.52;;;;;;;;;;5034500;28;20249;-79
2021/01/19 06:36:55;;;;;;;23.98;21.70;;;;;;;;;;5034554;28;20251;-79
2021/01/19 06:39:28;;;;;;;22.10;19.98;;;;;;;;;;5034980;28;20553;-79
2021/01/19 06:41:59;;;;;;;20.33;19.02;;;;;;;;;;5034585;28;20194;-79
2021/01/19 06:44:32;;;;;;;22.40;20.30;;;;;;;;;;5034099;28;20233;-79
2021/01/19 06:46:59;;;;;;;22.17;20.42;;;;;;;;;;5034329;28;20190;-80
2021/01/19 06:49:26;;;;;;;26.38;21.15;;;;;;;;;;5034377;28;20193;-79
2021/01/19 06:51:56;;;;;;;23.10;21.05;;;;;;;;;;5034105;28;20225;-80
2021/01/19 06:54:24;;;;;;;23.30;21.75;;;;;;;;;;5034277;28;20203;-79
2021/01/19 06:56:56;;;;;;;23.88;21.63;;;;;;;;;;5034113;28;20260;-81
2021/01/19 06:59:31;;;;;;;22.48;20.52;;;;;;;;;;5034274;28;20199;-79
2021/01/19 07:01:59;;;;;;;23.63;21.77;;;;;;;;;;5033796;28;20193;-79
2021/01/19 07:04:26;;;;;;;23.73;21.52;;;;;;;;;;5016225;28;20240;-79
2021/01/19 07:07:13;;;;;;;22.85;21.15;;;;;;;;;;5033750;28;20189;-78
2021/01/19 07:10:04;;;;;;;22.02;20.60;;;;;;;;;;5029294;28;20210;-79
2021/01/19 07:13:01;;;;;;;23.45;21.77;;;;;;;;;;5033757;28;20207;-79
2021/01/19 07:15:47;;;;;;;21.92;20.60;;;;;;;;;;5033459;28;20248;-78
2021/01/19 07:18:19;;;;;;;22.75;21.10;;;;;;;;;;5033643;28;20649;-78
2021/01/19 07:21:02;;;;;;;22.02;20.67;;;;;;;;;;5033567;28;20198;-79
2021/01/19 07:23:35;;;;;;;22.83;21.23;;;;;;;;;;5033655;28;20196;-79
2021/01/19 07:26:02;;;;;;;22.65;20.95;;;;;;;;;;5033869;28;20188;-79
2021/01/19 07:28:30;;;;;;;22.95;20.90;;;;;;;;;;5015486;28;20196;-79
2021/01/19 07:30:57;;;;;;;22.40;20.88;;;;;;;;;;5033337;28;20198;-79
2021/01/19 07:33:26;;;;;;;21.95;20.27;;;;;;;;;;5033453;28;20666;-79
2021/01/19 07:35:53;;;;;;;22.65;20.77;;;;;;;;;;5033528;28;20533;-79
2021/01/19 07:38:23;;;;;;;23.17;21.27;;;;;;;;;;5033521;28;20185;-79
2021/01/19 07:40:50;;;;;;;21.38;19.98;;;;;;;;;;5033449;28;20647;-79
2021/01/19 07:43:17;;;;;;;22.30;20.75;;;;;;;;;;5033416;28;20201;-82
2021/01/19 07:45:50;;;;;;;23.25;21.65;;;;;;;;;;5033621;28;20225;-80
2021/01/19 07:48:18;;;;;;;23.02;21.38;;;;;;;;;;5015944;28;20650;-80
2021/01/19 07:50:46;;;;;;;24.13;22.15;;;;;;;;;;5033229;28;20226;-80
2021/01/19 07:53:13;;;;;;;23.90;21.90;;;;;;;;;;5033303;28;20190;-80
2021/01/19 07:55:44;;;;;;;23.90;22.30;;;;;;;;;;5033478;28;20198;-80
2021/01/19 07:58:17;;;;;;;23.90;22.20;;;;;;;;;;5033471;28;20205;-80
2021/01/19 08:00:45;;;;;;;24.02;22.13;;;;;;;;;;5016057;28;20719;-80
2021/01/19 08:03:12;;;;;;;23.83;22.13;;;;;;;;;;5033222;28;20205;-80
2021/01/19 08:05:39;;;;;;;23.13;21.73;;;;;;;;;;5033338;28;20226;-80
2021/01/19 08:08:19;;;;;;;21.98;20.70;;;;;;;;;;5034079;28;20240;-80
2021/01/19 08:11:03;;;;;;;23.50;21.92;;;;;;;;;;5033374;28;20645;-80
2021/01/19 08:13:30;;;;;;;23.17;21.67;;;;;;;;;;5032973;28;20613;-80
2021/01/19 08:16:05;;;;;;;22.45;20.95;;;;;;;;;;5033067;28;20355;-80
2021/01/19 08:18:37;;;;;;;23.17;21.55;;;;;;;;;;5033180;28;20234;-80
2021/01/19 08:21:07;;;;;;;22.60;21.17;;;;;;;;;;5033345;28;20674;-77
2021/01/19 08:23:35;;;;;;;23.35;21.55;;;;;;;;;;5033017;28;20190;-78
2021/01/19 08:26:03;;;;;;;22.60;20.92;;;;;;;;;;5032770;28;20683;-77
2021/01/19 08:28:31;;;;;;;22.30;21.10;;;;;;;;;;5033001;28;20221;-80
2021/01/19 08:30:58;;;;;;;22.15;20.65;;;;;;;;;;5033206;28;20206;-80
2021/01/19 08:33:26;;;;;;;22.35;21.05;;;;;;;;;;5033225;28;20190;-77
2021/01/19 08:35:53;;;;;;;22.10;20.52;;;;;;;;;;5033089;28;20253;-77
2021/01/19 08:38:22;;;;;;;22.10;20.80;;;;;;;;;;5033194;28;20191;-77
2021/01/19 08:40:50;;;;;;;22.30;20.80;;;;;;;;;;5034659;28;20633;-80
2021/01/19 08:43:17;;;;;;;22.48;21.10;;;;;;;;;;5036215;28;20202;-80
2021/01/19 08:45:44;;;;;;;23.25;21.85;;;;;;;;;;5036513;28;20621;-79
2021/01/19 08:48:12;;;;;;;22.55;20.95;;;;;;;;;;5036263;28;20555;-77
2021/01/19 08:50:39;;;;;;;22.40;21.00;;;;;;;;;;5036378;28;20225;-77
2021/01/19 08:53:09;;;;;;;22.92;21.63;;;;;;;;;;5036585;28;20540;-76
2021/01/19 08:55:36;;;;;;;21.50;20.30;;;;;;;;;;5036457;28;20221;-78
2021/01/19 08:58:05;;;;;;;22.27;20.90;;;;;;;;;;5036160;28;20198;-78
2021/01/19 09:00:33;;;;;;;21.83;20.42;;;;;;;;;;5036184;28;20193;-78
2021/01/19 09:03:00;;;;;;;21.10;19.80;;;;;;;;;;5036388;28;20699;-78
2021/01/19 09:05:28;;;;;;;22.88;21.58;;;;;;;;;;5036156;28;20217;-78
2021/01/19 09:07:56;;;;;;;23.15;21.45;;;;;;;;;;5035905;28;20194;-78
2021/01/19 09:10:23;;;;;;;22.75;21.45;;;;;;;;;;5035962;28;20196;-78
2021/01/19 09:12:51;;;;;;;22.95;21.42;;;;;;;;;;5035750;28;20242;-78
2021/01/19 09:15:19;;;;;;;22.38;20.92;;;;;;;;;;5035815;28;20229;-85
2021/01/19 09:17:52;;;;;;;20.40;19.30;;;;;;;;;;5036255;28;20205;-77
2021/01/19 09:20:19;;;;;;;22.70;21.33;;;;;;;;;;5035760;28;20198;-78
2021/01/19 09:22:46;;;;;;;22.20;20.73;;;;;;;;;;5036024;28;20567;-78
2021/01/19 09:25:13;;;;;;;22.70;21.20;;;;;;;;;;5035843;28;20221;-78
2021/01/19 09:27:40;;;;;;;21.75;20.45;;;;;;;;;;5035909;28;20190;-78
2021/01/19 09:30:08;;;;;;;21.55;20.25;;;;;;;;;;5035628;28;20216;-77
2021/01/19 09:32:37;;;;;;;22.55;21.13;;;;;;;;;;5035843;28;20289;-77
2021/01/19 09:35:04;;;;;;;22.10;20.80;;;;;;;;;;5035389;28;20235;-77
2021/01/19 09:37:31;;;;;;;21.50;20.20;;;;;;;;;;5035149;28;20209;-77
2021/01/19 09:39:58;;;;;;;22.88;21.48;;;;;;;;;;5035416;28;20198;-78
2021/01/19 09:42:25;;;;;;;21.35;20.15;;;;;;;;;;5033910;28;20705;-77
2021/01/19 09:44:52;;;;;;;22.25;20.95;;;;;;;;;;5035301;28;20566;-77
2021/01/19 09:47:23;;;;;;;22.52;20.95;;;;;;;;;;5035289;28;20710;-77
2021/01/19 09:49:52;;;;;;;23.38;21.88;;;;;;;;;;5035455;28;20187;-76
2021/01/19 09:52:19;;;;;;;22.33;21.02;;;;;;;;;;5035041;28;20229;-77
2021/01/19 09:54:47;;;;;;;22.45;21.15;;;;;;;;;;5035210;28;20197;-76
2021/01/19 09:57:13;;;;;;;22.38;21.00;;;;;;;;;;5034915;28;20194;-77
2021/01/19 09:59:41;;;;;;;21.52;20.10;;;;;;;;;;5034969;28;20194;-77
2021/01/19 10:02:08;;;;;;;21.30;20.10;;;;;;;;;;5035270;28;20193;-78
2021/01/19 10:04:35;;;;;;;22.50;21.20;;;;;;;;;;5034971;28;20213;-77
2021/01/19 10:07:04;;;;;;;21.58;20.38;;;;;;;;;;5034800;28;20194;-78
2021/01/19 10:09:31;;;;;;;21.55;20.35;;;;;;;;;;5034732;28;20205;-78
2021/01/19 10:11:58;;;;;;;22.58;21.27;;;;;;;;;;5034562;28;20189;-78
2021/01/19 10:14:31;;;;;;;22.77;21.52;;;;;;;;;;5034336;28;20663;-78
2021/01/19 10:16:58;;;;;;;23.55;21.90;;;;;;;;;;5035126;28;20222;-78
2021/01/19 10:19:25;;;;;;;22.58;21.27;;;;;;;;;;5034768;28;20206;-78
2021/01/19 10:21:53;;;;;;;22.02;20.70;;;;;;;;;;5034568;28;20647;-78
2021/01/19 10:24:21;;;;;;;21.40;20.30;;;;;;;;;;5034281;28;20218;-78
2021/01/19 10:27:01;;;;;;;22.33;21.13;;;;;;;;;;5034083;28;20194;-78
2021/01/19 10:29:28;;;;;;;21.85;20.35;;;;;;;;;;5034446;28;20194;-78
2021/01/19 10:31:58;;;;;;;22.10;20.70;;;;;;;;;;5034439;28;20211;-77
2021/01/19 10:34:27;;;;;;;21.45;20.15;;;;;;;;;;5034164;28;20551;-78
2021/01/19 10:36:54;;;;;;;21.50;20.23;;;;;;;;;;5034317;28;20210;-78
2021/01/19 10:39:22;;;;;;;21.40;20.20;;;;;;;;;;5034447;28;20190;-78
2021/01/19 10:41:50;;;;;;;20.50;19.40;;;;;;;;;;5034353;28;20205;-78
2021/01/19 10:44:17;;;;;;;22.02;20.45;;;;;;;;;;5033825;28;20221;-78
2021/01/19 10:46:44;;;;;;;21.60;20.40;;;;;;;;;;5034102;28;20206;-78
2021/01/19 10:49:12;;;;;;;21.42;20.30;;;;;;;;;;5034001;28;20199;-78
2021/01/19 10:51:39;;;;;;;21.55;20.35;;;;;;;;;;5033608;28;20232;-78
2021/01/19 10:54:07;;;;;;;21.35;20.25;;;;;;;;;;5034154;28;20189;-78
2021/01/19 10:56:35;;;;;;;21.50;20.20;;;;;;;;;;5033771;28;20277;-78
2021/01/19 10:59:02;;;;;;;22.63;21.33;;;;;;;;;;5034210;28;20194;-78
2021/01/19 11:01:29;;;;;;;21.98;20.77;;;;;;;;;;5033741;28;20247;-78
2021/01/19 11:03:56;;;;;;;22.47;21.27;;;;;;;;;;5033550;28;20193;-78
2021/01/19 11:06:29;;;;;;;22.33;21.13;;;;;;;;;;5033840;28;20201;-78
2021/01/19 11:08:56;;;;;;;21.25;20.10;;;;;;;;;;5034033;28;20197;-78
2021/01/19 11:11:23;;;;;;;23.13;21.38;;;;;;;;;;5033328;28;20548;-78
2021/01/19 11:13:51;;;;;;;23.35;22.05;;;;;;;;;;5034034;28;20205;-78
2021/01/19 11:16:18;;;;;;;27.35;25.70;;;;;;;;;;5033442;28;20237;-78
2021/01/19 11:18:44;;;;;;;25.75;24.35;;;;;;;;;;5033804;28;20187;-78
2021/01/19 11:21:12;;;;;;;25.63;24.23;;;;;;;;;;5033697;28;20663;-78
2021/01/19 11:23:39;;;;;;;26.40;25.00;;;;;;;;;;5033511;28;20632;-78
2021/01/19 11:26:06;;;;;;;25.77;24.27;;;;;;;;;;5032781;28;20249;-78
2021/01/19 11:28:33;;;;;;;27.02;25.63;;;;;;;;;;5033473;28;20200;-78
2021/01/19 11:31:00;;;;;;;25.63;24.23;;;;;;;;;;5033541;28;20195;-78
2021/01/19 11:33:27;;;;;;;25.92;24.42;;;;;;;;;;5016039;28;20203;-78
2021/01/19 11:35:54;;;;;;;25.90;24.50;;;;;;;;;;5033825;28;20536;-77
2021/01/19 11:38:21;;;;;;;26.60;24.90;;;;;;;;;;5033502;28;20190;-78
2021/01/19 11:40:48;;;;;;;26.50;25.00;;;;;;;;;;5032967;28;20264;-78
2021/01/19 11:43:15;;;;;;;27.65;26.15;;;;;;;;;;5033390;28;20202;-78
2021/01/19 11:45:42;;;;;;;27.50;26.00;;;;;;;;;;5033218;28;20232;-78
2021/01/19 11:48:10;;;;;;;25.90;24.50;;;;;;;;;;5033549;28;20185;-77
2021/01/19 11:50:37;;;;;;;30.27;28.60;;;;;;;;;;5033458;28;20224;-77
2021/01/19 11:53:04;;;;;;;29.17;27.67;;;;;;;;;;5033572;28;20198;-77
2021/01/19 11:55:31;;;;;;;28.90;27.30;;;;;;;;;;5033195;28;20191;-77
2021/01/19 11:57:58;;;;;;;27.70;26.20;;;;;;;;;;5033526;28;20190;-77
2021/01/19 12:00:24;;;;;;;28.15;26.55;;;;;;;;;;5033465;28;20244;-77
2021/01/19 12:02:51;;;;;;;28.48;26.88;;;;;;;;;;5033488;28;20185;-77
2021/01/19 12:05:19;;;;;;;27.65;26.15;;;;;;;;;;5033010;28;20248;-77
2021/01/19 12:07:46;;;;;;;28.77;27.17;;;;;;;;;;5033432;28;20199;-77
2021/01/19 12:10:13;;;;;;;27.77;26.17;;;;;;;;;;5033481;28;20201;-77
2021/01/19 12:12:40;;;;;;;29.52;27.92;;;;;;;;;;5033068;28;20196;-77
2021/01/19 12:15:07;;;;;;;30.00;28.40;;;;;;;;;;5034924;28;20246;-77
2021/01/19 12:17:34;;;;;;;30.25;28.65;;;;;;;;;;5019472;28;20218;-77
2021/01/19 12:20:01;;;;;;;28.45;26.90;;;;;;;;;;5037093;28;20282;-77
2021/01/19 12:22:29;;;;;;;29.42;27.42;;;;;;;;;;5036839;28;20199;-77
2021/01/19 12:24:56;;;;;;;28.92;27.42;;;;;;;;;;5037047;28;20211;-82
2021/01/19 12:27:23;;;;;;;30.55;28.85;;;;;;;;;;5036992;28;20186;-77
2021/01/19 12:29:49;;;;;;;30.45;28.75;;;;;;;;;;5036955;28;20194;-79
2021/01/19 12:32:16;;;;;;;29.58;27.98;;;;;;;;;;5036613;28;20197;-76
2021/01/19 12:34:43;;;;;;;29.92;28.33;;;;;;;;;;5036881;28;20640;-76
2021/01/19 12:37:10;;;;;;;32.50;30.73;;;;;;;;;;5036166;28;20321;-76
2021/01/19 12:39:38;;;;;;;30.83;29.10;;;;;;;;;;5018957;28;20281;-76
2021/01/19 12:42:06;;;;;;;32.60;30.83;;;;;;;;;;5036705;28;20186;-75
2021/01/19 12:44:33;;;;;;;29.10;27.52;;;;;;;;;;5036093;28;20238;-76
2021/01/19 12:47:00;;;;;;;32.00;30.17;;;;;;;;;;5036291;28;20571;-76
2021/01/19 12:49:27;;;;;;;33.90;32.00;;;;;;;;;;5036593;28;20194;-76
2021/01/19 12:51:54;;;;;;;30.00;28.35;;;;;;;;;;5036181;28;20256;-75
2021/01/19 12:54:21;;;;;;;33.47;31.38;;;;;;;;;;5036470;28;20187;-76
2021/01/19 12:56:49;;;;;;;32.85;30.95;;;;;;;;;;5036143;28;20202;-76
2021/01/19 12:59:16;;;;;;;32.92;31.02;;;;;;;;;;5036092;28;20203;-76
2021/01/19 13:01:42;;;;;;;33.15;31.15;;;;;;;;;;5036145;28;20237;-76
2021/01/19 13:04:10;;;;;;;34.20;32.20;;;;;;;;;;5036299;28;20516;-79
2021/01/19 13:06:37;;;;;;;34.80;32.90;;;;;;;;;;5036361;28;20206;-82
2021/01/19 13:09:05;;;;;;;34.10;32.20;;;;;;;;;;5036312;28;20194;-81
2021/01/19 13:11:32;;;;;;;35.83;33.72;;;;;;;;;;5035953;28;20201;-77
2021/01/19 13:13:59;;;;;;;39.47;37.08;;;;;;;;;;5036209;28;20209;-77
2021/01/19 13:16:26;;;;;;;35.22;33.17;;;;;;;;;;5035738;28;20237;-77
2021/01/19 13:18:53;;;;;;;33.75;31.95;;;;;;;;;;5035798;28;20640;-77
2021/01/19 13:21:20;;;;;;;37.65;35.65;;;;;;;;;;5035898;28;20205;-80
2021/01/19 13:23:46;;;;;;;51.35;36.40;;;;;;;;;;5036002;28;20244;-76
2021/01/19 13:26:13;;;;;;;38.42;36.35;;;;;;;;;;5034917;28;20219;-77
2021/01/19 13:28:40;;;;;;;39.40;37.20;;;;;;;;;;5036361;28;20584;-77
2021/01/19 13:31:08;;;;;;;41.42;39.13;;;;;;;;;;5035921;28;20197;-77
2021/01/19 13:33:35;;;;;;;42.42;40.03;;;;;;;;;;5035900;28;20250;-77
2021/01/19 13:36:02;;;;;;;47.47;44.88;;;;;;;;;;5035408;28;20195;-77
2021/01/19 13:38:29;;;;;;;43.35;41.05;;;;;;;;;;5035526;28;20548;-78
2021/01/19 13:40:56;;;;;;;38.55;36.50;;;;;;;;;;5035427;28;20687;-76
2021/01/19 13:43:22;;;;;;;42.92;40.40;;;;;;;;;;5035232;28;20191;-77
2021/01/19 13:45:49;;;;;;;44.45;41.95;;;;;;;;;;5035382;28;20229;-76
2021/01/19 13:48:17;;;;;;;42.58;40.03;;;;;;;;;;5035252;28;20189;-77
2021/01/19 13:50:44;;;;;;;42.70;40.33;;;;;;;;;;5035840;28;20608;-77
2021/01/19 13:53:11;;;;;;;42.28;39.67;;;;;;;;;;5035421;28;20191;-77
2021/01/19 13:55:38;;;;;;;47.40;44.60;;;;;;;;;;5035347;28;20203;-77
2021/01/19 13:58:05;;;;;;;41.13;38.72;;;;;;;;;;5035097;28;20591;-77
2021/01/19 14:00:32;;;;;;;43.10;40.40;;;;;;;;;;5034717;28;20188;-77
2021/01/19 14:02:58;;;;;;;44.78;42.08;;;;;;;;;;5035215;28;20198;-77
2021/01/19 14:05:26;;;;;;;47.03;43.85;;;;;;;;;;5035035;28;20241;-77
2021/01/19 14:07:53;;;;;;;53.05;49.85;;;;;;;;;;5034826;28;20195;-77
2021/01/19 14:10:20;;;;;;;54.50;51.10;;;;;;;;;;5035050;28;20186;-77
2021/01/19 14:12:47;;;;;;;49.45;46.45;;;;;;;;;;5034823;28;20195;-79
2021/01/19 14:15:14;;;;;;;53.70;50.25;;;;;;;;;;5034622;28;20233;-79
2021/01/19 14:17:41;;;;;;;53.45;49.90;;;;;;;;;;5034725;28;20195;-77
2021/01/19 14:20:08;;;;;;;56.95;53.00;;;;;;;;;;5034888;28;20193;-77
2021/01/19 14:22:36;;;;;;;52.05;48.70;;;;;;;;;;5034591;28;20192;-76
2021/01/19 14:25:04;;;;;;;55.80;51.97;;;;;;;;;;5034388;28;20217;-79